Labelle, Idaho
Current Conditions -  °F | °C
As of 6:53 AM on Friday 31 Oct 2014 (Local Time) from KRXE Reporting Station
Clear Clear  
Wind Chill: 32°   Ceiling: Unl
Heat Index: 36°   Visibility: 10mi
Dew Point: 29°   Wind: 5mph
Humidity: 76%   Direction: 50°NE
Pressure: 30.01"   Gusts: NA
Location:  43.6749°N, 111.89°W
Report Text: KRXE 311253Z AUTO 05004KT 10SM CLR 02/M02 A3001 RMK AO2 SLP156 T00221017
Loading
Personal Weather Stations






























Interactive Weather Map
Tropical Storm Tracking
New forecast layout! Learn more

10-Day Weather Forecast

Advertisements
Track Severe Weather on mobile